Terminal Aerodrome Forecast
Issued by NWS

Home | Current Version | Previous Version | Text Only | Print | Product List | Glossary On
Versions: 1 2 3 4 5 6 7 8 9 10 11 12 13 14 15 16 17 18 19 20 21 22 23
000
FTUS42 KMLB 280534
TAFISM
TAF
KISM 280534Z 2806/2906 18005KT P6SM SCT025 SCT250
      TEMPO 2808/2811 BKN010 BKN020
     FM281200 19006KT P6SM VCSH SCT020 BKN030 BKN090
     FM281500 21010KT P6SM VCTS SCT035CB BKN060
     FM282200 22006KT P6SM FEW020 SCT080 BKN250
      AMD NOT SKED TIL 281200=

USA.gov is the U.S. government's official web portal to all federal, state and local government web resources and services.